Lowville, Pennsylvania
Current Conditions -  °F | °C
As of 12:51 AM on Monday 26 Jan 2015 (Local Time) from KERI Reporting Station
Overcast Overcast  
Wind Chill:   Ceiling: 9500
Heat Index: 17°   Visibility: 10mi
Dew Point:   Wind: 14mph
Humidity: 65%   Direction: 60°ENE
Pressure: 29.92"   Gusts: NA
Location:  42.0384°N, 79.8318°W
Report Text: KERI 260551Z 06012KT 10SM OVC095 M08/M14 A2992 RMK AO2 SLP146 T10831139 11072 21083 56006
Loading
Personal Weather Stations






























Interactive Weather Map New forecast layout! Learn more

10-Day Weather Forecast

Advertisements
Track Severe Weather on mobile